sensor_id;sensor_type;location;lat;lon;timestamp;pressure;altitude;pressure_sealevel;temperature;humidity
59168;BME280;70412;55.048;73.268;2024-03-23T00:54:23;100182.06;;;-9.65;100.00
59168;BME280;70412;55.048;73.268;2024-03-23T00:57:26;100186.28;;;-9.69;100.00
59168;BME280;70412;55.048;73.268;2024-03-23T01:00:28;100181.19;;;-9.69;100.00
59168;BME280;70412;55.048;73.268;2024-03-23T01:03:31;100182.06;;;-9.65;100.00
59168;BME280;70412;55.048;73.268;2024-03-23T01:06:33;100178.66;;;-9.67;100.00
59168;BME280;70412;55.048;73.268;2024-03-23T01:09:43;100173.59;;;-9.67;100.00
59168;BME280;70412;55.048;73.268;2024-03-23T01:12:45;100171.91;;;-9.65;100.00
59168;BME280;70412;55.048;73.268;2024-03-23T01:15:51;100165.16;;;-9.62;100.00
59168;BME280;70412;55.048;73.268;2024-03-23T01:18:54;100145.69;;;-9.63;100.00
59168;BME280;70412;55.048;73.268;2024-03-23T01:21:57;100162.69;;;-9.56;100.00
59168;BME280;70412;55.048;73.268;2024-03-23T01:25:00;100150.06;;;-9.50;100.00
59168;BME280;70412;55.048;73.268;2024-03-23T01:28:02;100153.47;;;-9.41;100.00
59168;BME280;70412;55.048;73.268;2024-03-23T01:31:05;100166.25;;;-9.35;100.00
59168;BME280;70412;55.048;73.268;2024-03-23T01:34:07;100170.50;;;-9.28;100.00
59168;BME280;70412;55.048;73.268;2024-03-23T01:37:10;100174.75;;;-9.24;100.00
59168;BME280;70412;55.048;73.268;2024-03-23T01:40:13;100166.34;;;-9.20;100.00
59168;BME280;70412;55.048;73.268;2024-03-23T01:43:16;100168.06;;;-9.13;100.00
59168;BME280;70412;55.048;73.268;2024-03-23T01:46:18;100171.53;;;-9.02;100.00
59168;BME280;70412;55.048;73.268;2024-03-23T01:49:21;100165.66;;;-8.93;100.00
59168;BME280;70412;55.048;73.268;2024-03-23T01:52:23;100156.41;;;-8.80;100.00
59168;BME280;70412;55.048;73.268;2024-03-23T01:55:26;100157.34;;;-8.63;100.00
59168;BME280;70412;55.048;73.268;2024-03-23T01:58:29;100155.72;;;-8.53;100.00
59168;BME280;70412;55.048;73.268;2024-03-23T02:01:34;100148.16;;;-8.37;100.00
59168;BME280;70412;55.048;73.268;2024-03-23T02:04:43;100167.72;;;-8.19;100.00
59168;BME280;70412;55.048;73.268;2024-03-23T02:07:46;100163.50;;;-8.18;100.00
59168;BME280;70412;55.048;73.268;2024-03-23T02:10:49;100155.03;;;-8.08;100.00
59168;BME280;70412;55.048;73.268;2024-03-23T02:13:51;100162.69;;;-7.94;100.00
59168;BME280;70412;55.048;73.268;2024-03-23T02:16:54;100177.16;;;-7.86;100.00
59168;BME280;70412;55.048;73.268;2024-03-23T02:19:56;100169.53;;;-7.84;100.00
59168;BME280;70412;55.048;73.268;2024-03-23T02:22:59;100175.50;;;-7.69;100.00
59168;BME280;70412;55.048;73.268;2024-03-23T02:26:02;100150.88;;;-7.57;100.00
59168;BME280;70412;55.048;73.268;2024-03-23T02:29:04;100164.47;;;-7.19;100.00
59168;BME280;70412;55.048;73.268;2024-03-23T02:32:07;100157.66;;;-7.09;100.00
59168;BME280;70412;55.048;73.268;2024-03-23T02:35:11;100143.25;;;-7.18;98.41
59168;BME280;70412;55.048;73.268;2024-03-23T02:38:13;100172.97;;;-7.01;98.93
59168;BME280;70412;55.048;73.268;2024-03-23T02:41:16;100152.59;;;-7.17;97.51
59168;BME280;70412;55.048;73.268;2024-03-23T02:44:24;100167.81;;;-6.91;97.83
59168;BME280;70412;55.048;73.268;2024-03-23T02:47:27;100153.38;;;-6.90;96.11
59168;BME280;70412;55.048;73.268;2024-03-23T02:50:29;100163.50;;;-6.72;95.78
59168;BME280;70412;55.048;73.268;2024-03-23T02:53:34;100169.44;;;-6.64;95.87
59168;BME280;70412;55.048;73.268;2024-03-23T02:56:37;100169.44;;;-6.71;95.17
59168;BME280;70412;55.048;73.268;2024-03-23T02:59:43;100171.16;;;-6.75;93.56
59168;BME280;70412;55.048;73.268;2024-03-23T03:02:45;100165.22;;;-6.71;94.35
59168;BME280;70412;55.048;73.268;2024-03-23T03:05:55;100136.31;;;-6.73;94.34
59168;BME280;70412;55.048;73.268;2024-03-23T03:08:57;100157.47;;;-6.45;93.86
59168;BME280;70412;55.048;73.268;2024-03-23T03:12:01;100150.53;;;-6.14;93.67
59168;BME280;70412;55.048;73.268;2024-03-23T03:15:04;100151.25;;;-5.91;92.00
59168;BME280;70412;55.048;73.268;2024-03-23T03:18:10;100151.13;;;-5.72;90.90
59168;BME280;70412;55.048;73.268;2024-03-23T03:21:12;100151.16;;;-5.75;90.08
59168;BME280;70412;55.048;73.268;2024-03-23T03:24:15;100138.41;;;-5.77;88.19
59168;BME280;70412;55.048;73.268;2024-03-23T03:27:18;100125.59;;;-5.68;89.37
59168;BME280;70412;55.048;73.268;2024-03-23T03:30:20;100156.88;;;-5.41;87.42
59168;BME280;70412;55.048;73.268;2024-03-23T03:33:27;100098.25;;;-5.58;87.58
59168;BME280;70412;55.048;73.268;2024-03-23T03:36:29;100164.41;;;-5.25;84.97
59168;BME280;70412;55.048;73.268;2024-03-23T03:39:32;100160.13;;;-5.18;84.77
59168;BME280;70412;55.048;73.268;2024-03-23T03:42:53;100152.44;;;-5.16;84.69
59168;BME280;70412;55.048;73.268;2024-03-23T03:45:57;100160.84;;;-5.02;83.75
59168;BME280;70412;55.048;73.268;2024-03-23T03:49:00;100152.81;;;-4.70;83.87
59168;BME280;70412;55.048;73.268;2024-03-23T03:52:02;100169.75;;;-4.57;82.30
59168;BME280;70412;55.048;73.268;2024-03-23T03:55:12;100134.91;;;-4.69;81.59
59168;BME280;70412;55.048;73.268;2024-03-23T03:58:15;100146.41;;;-4.29;80.79
59168;BME280;70412;55.048;73.268;2024-03-23T04:01:17;100160.94;;;-4.33;80.26
59168;BME280;70412;55.048;73.268;2024-03-23T04:04:20;100153.28;;;-4.33;78.22
59168;BME280;70412;55.048;73.268;2024-03-23T04:07:24;100154.59;;;-4.01;80.45
59168;BME280;70412;55.048;73.268;2024-03-23T04:10:27;100150.63;;;-3.64;78.31
59168;BME280;70412;55.048;73.268;2024-03-23T04:13:30;100155.69;;;-3.61;76.36
59168;BME280;70412;55.048;73.268;2024-03-23T04:16:35;100150.63;;;-3.64;76.24
59168;BME280;70412;55.048;73.268;2024-03-23T04:19:44;100156.66;;;-3.68;75.58
59168;BME280;70412;55.048;73.268;2024-03-23T04:22:47;100145.31;;;-3.52;74.73
59168;BME280;70412;55.048;73.268;2024-03-23T04:25:49;100125.66;;;-3.51;74.43
59168;BME280;70412;55.048;73.268;2024-03-23T04:28:54;100141.03;;;-3.51;71.60
59168;BME280;70412;55.048;73.268;2024-03-23T04:31:56;100149.78;;;-3.64;72.06
59168;BME280;70412;55.048;73.268;2024-03-23T04:34:59;100148.59;;;-3.44;72.97
59168;BME280;70412;55.048;73.268;2024-03-23T04:38:02;100148.78;;;-3.03;72.36
59168;BME280;70412;55.048;73.268;2024-03-23T04:41:04;100157.66;;;-2.73;71.41
59168;BME280;70412;55.048;73.268;2024-03-23T04:44:07;100154.13;;;-2.66;68.70
59168;BME280;70412;55.048;73.268;2024-03-23T04:47:10;100129.00;;;-2.97;68.36
59168;BME280;70412;55.048;73.268;2024-03-23T04:50:14;100146.41;;;-2.66;70.17
59168;BME280;70412;55.048;73.268;2024-03-23T04:53:17;100147.59;;;-2.39;68.82
59168;BME280;70412;55.048;73.268;2024-03-23T04:56:20;100147.56;;;-2.38;66.56
59168;BME280;70412;55.048;73.268;2024-03-23T04:59:23;100152.75;;;-2.41;66.79
59168;BME280;70412;55.048;73.268;2024-03-23T05:02:25;100140.56;;;-2.30;66.05
59168;BME280;70412;55.048;73.268;2024-03-23T05:05:29;100123.22;;;-2.20;66.16
59168;BME280;70412;55.048;73.268;2024-03-23T05:08:31;100145.38;;;-1.76;66.44
59168;BME280;70412;55.048;73.268;2024-03-23T05:11:34;100142.69;;;-1.34;65.32
59168;BME280;70412;55.048;73.268;2024-03-23T05:14:43;100145.78;;;-1.20;64.53
59168;BME280;70412;55.048;73.268;2024-03-23T05:17:45;100152.19;;;-1.02;64.21
59168;BME280;70412;55.048;73.268;2024-03-23T05:20:48;100123.53;;;-1.22;63.29
59168;BME280;70412;55.048;73.268;2024-03-23T05:23:54;100150.22;;;-0.92;63.94
59168;BME280;70412;55.048;73.268;2024-03-23T05:26:56;100146.84;;;-0.94;61.69
59168;BME280;70412;55.048;73.268;2024-03-23T05:30:01;100136.19;;;-1.13;62.10
59168;BME280;70412;55.048;73.268;2024-03-23T05:33:04;100139.63;;;-0.80;62.17
59168;BME280;70412;55.048;73.268;2024-03-23T05:36:06;100065.41;;;-0.97;61.01
59168;BME280;70412;55.048;73.268;2024-03-23T05:39:13;100134.72;;;-0.58;61.80
59168;BME280;70412;55.048;73.268;2024-03-23T05:42:18;100123.16;;;-0.44;59.55
59168;BME280;70412;55.048;73.268;2024-03-23T05:45:21;100135.72;;;-0.33;59.66
59168;BME280;70412;55.048;73.268;2024-03-23T05:48:28;100137.03;;;-0.48;60.31
59168;BME280;70412;55.048;73.268;2024-03-23T05:51:32;100138.63;;;-0.44;58.50
59168;BME280;70412;55.048;73.268;2024-03-23T05:54:43;100128.84;;;-0.62;59.25
59168;BME280;70412;55.048;73.268;2024-03-23T05:57:45;100143.16;;;-0.22;60.19
59168;BME280;70412;55.048;73.268;2024-03-23T06:00:48;100136.91;;;-0.14;59.22
59168;BME280;70412;55.048;73.268;2024-03-23T06:03:50;100118.94;;;-0.46;57.50
59168;BME280;70412;55.048;73.268;2024-03-23T06:06:53;100134.59;;;-0.54;59.30
59168;BME280;70412;55.048;73.268;2024-03-23T06:09:55;100129.81;;;-0.36;58.52
59168;BME280;70412;55.048;73.268;2024-03-23T06:12:58;100130.97;;;-0.17;57.04
59168;BME280;70412;55.048;73.268;2024-03-23T06:16:01;100127.78;;;-0.25;58.00
59168;BME280;70412;55.048;73.268;2024-03-23T06:19:04;100128.06;;;-0.05;58.57
59168;BME280;70412;55.048;73.268;2024-03-23T06:22:08;100134.81;;;0.27;58.54
59168;BME280;70412;55.048;73.268;2024-03-23T06:25:11;100133.56;;;0.67;56.97
59168;BME280;70412;55.048;73.268;2024-03-23T06:28:14;100122.41;;;0.40;56.54
59168;BME280;70412;55.048;73.268;2024-03-23T06:31:17;100131.97;;;0.36;56.27
59168;BME280;70412;55.048;73.268;2024-03-23T06:34:20;100123.66;;;-0.01;56.13
59168;BME280;70412;55.048;73.268;2024-03-23T06:37:23;100130.88;;;0.43;56.72
59168;BME280;70412;55.048;73.268;2024-03-23T06:40:26;100135.72;;;0.54;55.40
59168;BME280;70412;55.048;73.268;2024-03-23T06:43:28;100130.28;;;0.35;55.79
59168;BME280;70412;55.048;73.268;2024-03-23T06:49:52;100124.34;;;0.32;56.06
59168;BME280;70412;55.048;73.268;2024-03-23T06:52:54;100125.41;;;0.26;55.50
59168;BME280;70412;55.048;73.268;2024-03-23T06:55:56;100123.44;;;0.06;56.42
59168;BME280;70412;55.048;73.268;2024-03-23T06:59:18;100122.19;;;0.19;55.47
59168;BME280;70412;55.048;73.268;2024-03-23T07:02:20;100102.06;;;0.03;55.42
59168;BME280;70412;55.048;73.268;2024-03-23T07:05:22;100125.22;;;0.04;55.88
59168;BME280;70412;55.048;73.268;2024-03-23T07:08:25;100120.00;;;0.34;56.94
59168;BME280;70412;55.048;73.268;2024-03-23T07:11:46;100117.41;;;0.34;54.69
59168;BME280;70412;55.048;73.268;2024-03-23T07:14:48;100113.28;;;0.56;56.36
59168;BME280;70412;55.048;73.268;2024-03-23T07:18:11;100108.50;;;0.44;54.14
59168;BME280;70412;55.048;73.268;2024-03-23T07:21:15;100110.50;;;0.36;54.09
59168;BME280;70412;55.048;73.268;2024-03-23T07:24:17;100114.94;;;0.31;55.43
59168;BME280;70412;55.048;73.268;2024-03-23T07:27:19;100108.59;;;0.41;53.76
59168;BME280;70412;55.048;73.268;2024-03-23T07:30:22;100104.28;;;0.13;54.48
59168;BME280;70412;55.048;73.268;2024-03-23T07:33:24;100095.44;;;0.48;55.90
59168;BME280;70412;55.048;73.268;2024-03-23T07:36:27;100108.78;;;0.61;53.05
59168;BME280;70412;55.048;73.268;2024-03-23T07:39:29;100082.34;;;0.28;53.94
59168;BME280;70412;55.048;73.268;2024-03-23T07:42:35;100110.03;;;0.76;53.90
59168;BME280;70412;55.048;73.268;2024-03-23T07:45:39;100113.28;;;0.56;53.57
59168;BME280;70412;55.048;73.268;2024-03-23T07:48:42;100114.66;;;0.66;54.85
59168;BME280;70412;55.048;73.268;2024-03-23T07:51:45;100121.19;;;0.76;53.30
59168;BME280;70412;55.048;73.268;2024-03-23T07:54:47;100106.25;;;0.60;52.98
59168;BME280;70412;55.048;73.268;2024-03-23T07:57:51;100111.81;;;0.74;54.42
59168;BME280;70412;55.048;73.268;2024-03-23T08:01:16;100110.94;;;0.75;52.44
59168;BME280;70412;55.048;73.268;2024-03-23T08:04:19;100103.06;;;0.78;54.93
59168;BME280;70412;55.048;73.268;2024-03-23T08:07:21;100108.38;;;1.25;55.24
59168;BME280;70412;55.048;73.268;2024-03-23T08:10:24;100098.38;;;1.39;54.84
59168;BME280;70412;55.048;73.268;2024-03-23T08:13:26;100102.31;;;1.49;55.10
59168;BME280;70412;55.048;73.268;2024-03-23T08:16:29;100103.91;;;1.53;54.48
59168;BME280;70412;55.048;73.268;2024-03-23T08:19:31;100104.53;;;1.35;53.92
59168;BME280;70412;55.048;73.268;2024-03-23T08:22:34;100100.66;;;1.23;53.20
59168;BME280;70412;55.048;73.268;2024-03-23T08:25:38;100069.09;;;1.15;54.98
59168;BME280;70412;55.048;73.268;2024-03-23T08:28:40;100081.03;;;1.42;54.82
59168;BME280;70412;55.048;73.268;2024-03-23T08:31:43;100094.47;;;1.52;54.67
59168;BME280;70412;55.048;73.268;2024-03-23T08:34:45;100066.88;;;1.53;54.68
59168;BME280;70412;55.048;73.268;2024-03-23T08:37:50;100083.16;;;1.78;53.85
59168;BME280;70412;55.048;73.268;2024-03-23T08:41:04;100072.69;;;1.81;54.57
59168;BME280;70412;55.048;73.268;2024-03-23T08:44:07;100059.63;;;1.84;54.46
59168;BME280;70412;55.048;73.268;2024-03-23T08:47:09;100071.00;;;1.80;53.01
59168;BME280;70412;55.048;73.268;2024-03-23T08:50:12;100058.50;;;1.69;54.31
59168;BME280;70412;55.048;73.268;2024-03-23T08:53:14;100072.56;;;1.84;54.10
59168;BME280;70412;55.048;73.268;2024-03-23T08:56:17;100068.19;;;1.86;53.98
59168;BME280;70412;55.048;73.268;2024-03-23T08:59:19;100065.00;;;2.01;54.23
59168;BME280;70412;55.048;73.268;2024-03-23T09:02:22;100069.44;;;1.98;53.66
59168;BME280;70412;55.048;73.268;2024-03-23T09:05:25;100071.25;;;2.18;54.27
59168;BME280;70412;55.048;73.268;2024-03-23T09:08:27;100069.63;;;1.93;53.67
59168;BME280;70412;55.048;73.268;2024-03-23T09:11:30;100066.97;;;1.73;54.60
59168;BME280;70412;55.048;73.268;2024-03-23T09:14:36;100070.56;;;1.46;52.89
59168;BME280;70412;55.048;73.268;2024-03-23T09:17:38;100057.53;;;1.25;54.49
59168;BME280;70412;55.048;73.268;2024-03-23T09:20:41;100058.94;;;1.34;54.37
59168;BME280;70412;55.048;73.268;2024-03-23T09:23:45;100037.53;;;1.07;54.93
59168;BME280;70412;55.048;73.268;2024-03-23T09:26:47;100040.75;;;1.37;55.38
59168;BME280;70412;55.048;73.268;2024-03-23T09:29:50;100057.41;;;1.75;54.78
59168;BME280;70412;55.048;73.268;2024-03-23T09:32:52;100058.38;;;1.94;53.94
59168;BME280;70412;55.048;73.268;2024-03-23T09:35:55;100031.13;;;1.64;53.58
59168;BME280;70412;55.048;73.268;2024-03-23T09:38:58;100052.13;;;1.78;53.13
59168;BME280;70412;55.048;73.268;2024-03-23T09:42:01;100050.19;;;1.83;54.17
59168;BME280;70412;55.048;73.268;2024-03-23T09:45:06;99939.22;;;1.33;54.72
59168;BME280;70412;55.048;73.268;2024-03-23T09:48:12;100054.72;;;2.22;53.51
59168;BME280;70412;55.048;73.268;2024-03-23T09:51:15;100044.53;;;2.17;53.75
59168;BME280;70412;55.048;73.268;2024-03-23T09:54:43;100053.53;;;2.09;53.10
59168;BME280;70412;55.048;73.268;2024-03-23T09:58:04;100050.31;;;1.80;53.24
59168;BME280;70412;55.048;73.268;2024-03-23T10:01:12;100041.59;;;1.83;52.86
59168;BME280;70412;55.048;73.268;2024-03-23T10:04:40;100044.94;;;1.86;51.80
59168;BME280;70412;55.048;73.268;2024-03-23T10:07:43;100048.75;;;1.98;52.43
59168;BME280;70412;55.048;73.268;2024-03-23T10:10:46;100041.13;;;2.17;52.38
59168;BME280;70412;55.048;73.268;2024-03-23T10:13:49;100041.34;;;2.32;51.97
59168;BME280;70412;55.048;73.268;2024-03-23T10:16:52;100032.38;;;2.61;53.05
59168;BME280;70412;55.048;73.268;2024-03-23T10:19:56;100032.25;;;2.85;53.16
59168;BME280;70412;55.048;73.268;2024-03-23T10:22:59;100037.56;;;2.61;51.65
59168;BME280;70412;55.048;73.268;2024-03-23T10:26:16;100021.38;;;2.36;52.64
59168;BME280;70412;55.048;73.268;2024-03-23T10:29:19;100040.78;;;2.46;53.31
59168;BME280;70412;55.048;73.268;2024-03-23T10:32:22;100029.78;;;2.41;53.06
59168;BME280;70412;55.048;73.268;2024-03-23T10:35:24;100027.78;;;2.48;53.57
59168;BME280;70412;55.048;73.268;2024-03-23T10:38:27;100017.56;;;2.45;52.79
59168;BME280;70412;55.048;73.268;2024-03-23T10:41:32;100025.59;;;2.39;53.78
59168;BME280;70412;55.048;73.268;2024-03-23T10:44:43;100030.56;;;2.43;53.68
59168;BME280;70412;55.048;73.268;2024-03-23T10:51:11;100027.59;;;2.73;52.86
59168;BME280;70412;55.048;73.268;2024-03-23T10:54:13;100029.72;;;2.43;52.72
59168;BME280;70412;55.048;73.268;2024-03-23T10:57:18;100004.47;;;2.27;53.98
59168;BME280;70412;55.048;73.268;2024-03-23T11:00:22;100028.69;;;2.67;52.78
59168;BME280;70412;55.048;73.268;2024-03-23T11:03:32;100012.97;;;2.72;53.32
59168;BME280;70412;55.048;73.268;2024-03-23T11:06:35;100011.91;;;2.96;53.27
59168;BME280;70412;55.048;73.268;2024-03-23T11:09:43;100006.78;;;2.95;52.96
59168;BME280;70412;55.048;73.268;2024-03-23T11:12:48;100010.94;;;4.29;62.21
59168;BME280;70412;55.048;73.268;2024-03-23T11:15:51;99998.97;;;1.02;58.97
59168;BME280;70412;55.048;73.268;2024-03-23T11:18:54;99999.44;;;0.89;61.65
59168;BME280;70412;55.048;73.268;2024-03-23T11:21:57;99995.56;;;1.47;61.17
59168;BME280;70412;55.048;73.268;2024-03-23T11:28:38;99989.56;;;-0.01;64.77
59168;BME280;70412;55.048;73.268;2024-03-23T11:31:50;99990.53;;;0.97;62.27
59168;BME280;70412;55.048;73.268;2024-03-23T11:34:55;99985.09;;;1.50;61.79
59168;BME280;70412;55.048;73.268;2024-03-23T11:41:20;99993.03;;;0.99;62.21
59168;BME280;70412;55.048;73.268;2024-03-23T11:44:23;99988.97;;;2.06;59.34
59168;BME280;70412;55.048;73.268;2024-03-23T11:47:27;99993.25;;;4.87;52.89
59168;BME280;70412;55.048;73.268;2024-03-23T11:50:30;99992.72;;;5.78;47.79
59168;BME280;70412;55.048;73.268;2024-03-23T11:53:32;99986.03;;;5.74;45.70
59168;BME280;70412;55.048;73.268;2024-03-23T11:56:36;99982.88;;;3.27;51.69
59168;BME280;70412;55.048;73.268;2024-03-23T11:59:43;99986.19;;;4.39;49.47
59168;BME280;70412;55.048;73.268;2024-03-23T12:02:46;99986.41;;;4.34;50.47
59168;BME280;70412;55.048;73.268;2024-03-23T12:05:49;99987.47;;;4.48;50.46
59168;BME280;70412;55.048;73.268;2024-03-23T12:09:05;99988.47;;;6.23;45.91
59168;BME280;70412;55.048;73.268;2024-03-23T12:12:17;99976.63;;;3.12;53.15
59168;BME280;70412;55.048;73.268;2024-03-23T12:15:21;99986.44;;;2.46;50.99
59168;BME280;70412;55.048;73.268;2024-03-23T12:18:24;99981.44;;;4.30;48.77
59168;BME280;70412;55.048;73.268;2024-03-23T12:21:46;99979.84;;;2.99;48.56
59168;BME280;70412;55.048;73.268;2024-03-23T12:24:49;99973.91;;;4.25;49.50
59168;BME280;70412;55.048;73.268;2024-03-23T12:27:52;99976.50;;;5.10;47.65
59168;BME280;70412;55.048;73.268;2024-03-23T12:31:14;99974.25;;;4.52;46.97
59168;BME280;70412;55.048;73.268;2024-03-23T12:34:48;99976.94;;;1.16;55.04
59168;BME280;70412;55.048;73.268;2024-03-23T12:37:51;99977.91;;;1.13;58.68
59168;BME280;70412;55.048;73.268;2024-03-23T12:40:53;99973.16;;;0.28;61.00
59168;BME280;70412;55.048;73.268;2024-03-23T12:43:56;99969.84;;;-1.17;66.26
59168;BME280;70412;55.048;73.268;2024-03-23T12:46:59;99972.41;;;-0.57;65.31
59168;BME280;70412;55.048;73.268;2024-03-23T12:50:01;99964.16;;;-0.97;66.30
59168;BME280;70412;55.048;73.268;2024-03-23T12:53:04;99969.38;;;-0.99;66.86
59168;BME280;70412;55.048;73.268;2024-03-23T12:56:27;99980.59;;;-1.33;68.27
59168;BME280;70412;55.048;73.268;2024-03-23T12:59:33;99969.41;;;-2.35;71.99
59168;BME280;70412;55.048;73.268;2024-03-23T13:02:55;99981.44;;;-1.65;71.68
59168;BME280;70412;55.048;73.268;2024-03-23T13:05:57;99981.59;;;-2.43;74.82
59168;BME280;70412;55.048;73.268;2024-03-23T13:09:01;99975.00;;;-1.48;70.97
59168;BME280;70412;55.048;73.268;2024-03-23T13:12:03;99976.09;;;-2.27;73.09
59168;BME280;70412;55.048;73.268;2024-03-23T13:15:06;99975.53;;;-2.41;74.67
59168;BME280;70412;55.048;73.268;2024-03-23T13:18:09;99975.13;;;-2.60;74.39
59168;BME280;70412;55.048;73.268;2024-03-23T13:21:11;99971.78;;;-2.63;77.17
59168;BME280;70412;55.048;73.268;2024-03-23T13:24:43;99966.16;;;-2.80;77.18
59168;BME280;70412;55.048;73.268;2024-03-23T13:27:48;99970.13;;;-3.07;78.87
59168;BME280;70412;55.048;73.268;2024-03-23T13:30:56;99968.16;;;-2.95;79.46
59168;BME280;70412;55.048;73.268;2024-03-23T13:34:18;99978.56;;;-3.01;79.26
59168;BME280;70412;55.048;73.268;2024-03-23T13:37:20;99974.84;;;-3.29;81.18
59168;BME280;70412;55.048;73.268;2024-03-23T13:40:22;99973.41;;;-3.44;82.45
59168;BME280;70412;55.048;73.268;2024-03-23T13:43:26;99980.19;;;-3.42;82.12
59168;BME280;70412;55.048;73.268;2024-03-23T13:46:30;99974.84;;;-3.77;84.95
59168;BME280;70412;55.048;73.268;2024-03-23T13:49:42;99966.28;;;-3.76;86.16
59168;BME280;70412;55.048;73.268;2024-03-23T13:53:05;99974.69;;;-3.68;85.21
59168;BME280;70412;55.048;73.268;2024-03-23T13:56:08;99966.22;;;-3.73;86.21
59168;BME280;70412;55.048;73.268;2024-03-23T13:59:10;99967.13;;;-3.76;87.67
59168;BME280;70412;55.048;73.268;2024-03-23T14:02:14;99974.13;;;-3.87;88.74
59168;BME280;70412;55.048;73.268;2024-03-23T14:08:37;99980.84;;;-3.78;87.54
59168;BME280;70412;55.048;73.268;2024-03-23T14:11:44;99978.97;;;-3.68;86.33
59168;BME280;70412;55.048;73.268;2024-03-23T14:14:46;99981.84;;;-3.88;87.92
59168;BME280;70412;55.048;73.268;2024-03-23T14:17:49;99989.41;;;-3.79;88.09
59168;BME280;70412;55.048;73.268;2024-03-23T14:20:52;99985.34;;;-3.92;88.04
59168;BME280;70412;55.048;73.268;2024-03-23T14:23:55;99982.91;;;-3.98;89.87
59168;BME280;70412;55.048;73.268;2024-03-23T14:26:58;99983.53;;;-3.84;89.45
59168;BME280;70412;55.048;73.268;2024-03-23T14:30:00;99982.72;;;-3.89;89.03
59168;BME280;70412;55.048;73.268;2024-03-23T14:33:03;99982.75;;;-3.91;89.42
59168;BME280;70412;55.048;73.268;2024-03-23T14:36:06;99989.31;;;-4.27;90.93
59168;BME280;70412;55.048;73.268;2024-03-23T14:39:08;99984.59;;;-3.97;90.31
59168;BME280;70412;55.048;73.268;2024-03-23T14:42:11;99985.03;;;-4.26;92.05
59168;BME280;70412;55.048;73.268;2024-03-23T14:45:13;99973.75;;;-4.13;90.50
59168;BME280;70412;55.048;73.268;2024-03-23T14:48:17;99990.44;;;-4.45;91.82
59168;BME280;70412;55.048;73.268;2024-03-23T14:51:20;99982.00;;;-4.53;94.77
59168;BME280;70412;55.048;73.268;2024-03-23T14:54:24;99981.28;;;-4.63;94.71
59168;BME280;70412;55.048;73.268;2024-03-23T14:57:26;99988.59;;;-4.38;93.24
59168;BME280;70412;55.048;73.268;2024-03-23T15:00:31;99984.94;;;-4.20;91.37
59168;BME280;70412;55.048;73.268;2024-03-23T15:03:33;99992.97;;;-4.43;92.96
59168;BME280;70412;55.048;73.268;2024-03-23T15:06:36;99979.56;;;-4.62;94.80
59168;BME280;70412;55.048;73.268;2024-03-23T15:09:43;99979.50;;;-4.57;94.84
59168;BME280;70412;55.048;73.268;2024-03-23T15:12:45;99987.28;;;-4.64;94.80
59168;BME280;70412;55.048;73.268;2024-03-23T15:15:48;99981.38;;;-4.69;95.74
59168;BME280;70412;55.048;73.268;2024-03-23T15:18:50;99988.31;;;-4.77;95.38
59168;BME280;70412;55.048;73.268;2024-03-23T15:21:58;99989.84;;;-4.64;95.26
59168;BME280;70412;55.048;73.268;2024-03-23T15:25:00;99984.78;;;-4.70;95.44
59168;BME280;70412;55.048;73.268;2024-03-23T15:28:03;99978.31;;;-4.95;96.83
59168;BME280;70412;55.048;73.268;2024-03-23T15:31:06;99982.56;;;-4.96;96.93
59168;BME280;70412;55.048;73.268;2024-03-23T15:34:08;99979.22;;;-4.99;97.01
59168;BME280;70412;55.048;73.268;2024-03-23T15:37:14;99978.53;;;-5.13;97.74
59168;BME280;70412;55.048;73.268;2024-03-23T15:40:16;99983.53;;;-5.03;97.45
59168;BME280;70412;55.048;73.268;2024-03-23T15:43:38;99980.97;;;-5.04;97.22
59168;BME280;70412;55.048;73.268;2024-03-23T15:46:40;99980.19;;;-5.09;97.57
59168;BME280;70412;55.048;73.268;2024-03-23T15:49:46;99988.72;;;-5.10;97.56
59168;BME280;70412;55.048;73.268;2024-03-23T15:52:48;99981.63;;;-4.90;95.43
59168;BME280;70412;55.048;73.268;2024-03-23T15:59:00;99982.63;;;-4.99;94.32
59168;BME280;70412;55.048;73.268;2024-03-23T16:02:10;99975.28;;;-5.28;95.55
59168;BME280;70412;55.048;73.268;2024-03-23T16:05:13;99981.91;;;-5.11;95.70
59168;BME280;70412;55.048;73.268;2024-03-23T16:08:15;99976.19;;;-5.33;96.41
59168;BME280;70412;55.048;73.268;2024-03-23T16:11:18;99975.38;;;-5.37;97.28
59168;BME280;70412;55.048;73.268;2024-03-23T16:14:20;99975.19;;;-5.20;96.29
59168;BME280;70412;55.048;73.268;2024-03-23T16:17:23;99983.84;;;-5.32;97.14
59168;BME280;70412;55.048;73.268;2024-03-23T16:21:01;99983.09;;;-5.41;97.56
59168;BME280;70412;55.048;73.268;2024-03-23T16:24:04;99982.19;;;-5.39;98.03
59168;BME280;70412;55.048;73.268;2024-03-23T16:27:06;99982.31;;;-5.48;98.40
59168;BME280;70412;55.048;73.268;2024-03-23T16:30:09;99982.28;;;-5.45;98.93
59168;BME280;70412;55.048;73.268;2024-03-23T16:33:12;99976.84;;;-5.14;96.59
59168;BME280;70412;55.048;73.268;2024-03-23T16:36:15;99979.78;;;-5.49;98.30
59168;BME280;70412;55.048;73.268;2024-03-23T16:39:19;99983.16;;;-5.46;99.48
59168;BME280;70412;55.048;73.268;2024-03-23T16:42:22;99979.59;;;-5.31;98.98
59168;BME280;70412;55.048;73.268;2024-03-23T16:45:24;99991.66;;;-5.45;99.70
59168;BME280;70412;55.048;73.268;2024-03-23T16:48:31;99983.81;;;-5.29;99.36
59168;BME280;70412;55.048;73.268;2024-03-23T16:51:34;99984.66;;;-5.28;99.29
59168;BME280;70412;55.048;73.268;2024-03-23T16:54:43;99983.16;;;-5.47;100.00
59168;BME280;70412;55.048;73.268;2024-03-23T16:57:45;99993.34;;;-5.43;100.00
59168;BME280;70412;55.048;73.268;2024-03-23T17:00:47;99995.84;;;-5.40;100.00
59168;BME280;70412;55.048;73.268;2024-03-23T17:03:51;99990.63;;;-5.29;100.00
59168;BME280;70412;55.048;73.268;2024-03-23T17:06:54;100000.22;;;-5.48;100.00
59168;BME280;70412;55.048;73.268;2024-03-23T17:09:56;99996.66;;;-5.33;100.00
59168;BME280;70412;55.048;73.268;2024-03-23T17:12:59;99991.28;;;-5.10;98.68